Time;durP1;ratioP1;P1;durP2;ratioP2;P2;SDS_P1;SDS_P2;PMS_P1;PMS_P2;Temp;Humidity;BMP_temperature;BMP_pressure;BME280_temperature;BME280_humidity;BME280_pressure;Samples;Min_cycle;Max_cycle;Signal;HPM_P1;HPM_P2
2021/07/30 00:02:00;;;;;;;16.35;6.65;;;17.40;71.60;;;;;;5093021;28;20036;-78
2021/07/30 00:04:25;;;;;;;10.15;5.95;;;17.40;71.60;;;;;;5093121;28;20456;-76
2021/07/30 00:06:51;;;;;;;17.23;6.55;;;17.40;71.60;;;;;;5093052;28;20364;-77
2021/07/30 00:09:17;;;;;;;10.85;5.72;;;17.40;71.60;;;;;;5092969;28;20121;-77
2021/07/30 00:11:42;;;;;;;14.98;6.32;;;17.40;71.70;;;;;;5075867;28;20369;-78
2021/07/30 00:14:08;;;;;;;10.77;5.72;;;17.40;71.70;;;;;;5092269;28;20421;-76
2021/07/30 00:16:35;;;;;;;14.13;6.05;;;17.40;71.90;;;;;;5092806;28;20102;-75
2021/07/30 00:19:01;;;;;;;11.23;6.13;;;17.40;71.90;;;;;;5092321;28;20020;-76
2021/07/30 00:21:26;;;;;;;10.63;4.47;;;17.40;71.70;;;;;;5093815;28;20103;-76
2021/07/30 00:23:52;;;;;;;13.15;4.97;;;17.40;71.60;;;;;;5091983;28;20157;-76
2021/07/30 00:26:18;;;;;;;9.70;5.65;;;17.40;71.60;;;;;;5093536;28;20035;-76
2021/07/30 00:28:43;;;;;;;13.13;6.45;;;17.40;71.70;;;;;;5094082;28;20020;-76
2021/07/30 00:31:09;;;;;;;8.95;4.88;;;17.40;71.80;;;;;;5063488;28;20016;-76
2021/07/30 00:33:35;;;;;;;13.23;5.13;;;17.40;71.80;;;;;;5096324;28;20032;-75
2021/07/30 00:36:01;;;;;;;14.77;5.63;;;17.40;71.90;;;;;;5079309;28;20048;-76
2021/07/30 00:38:26;;;;;;;10.63;4.97;;;17.40;71.90;;;;;;5079497;28;20396;-76
2021/07/30 00:40:52;;;;;;;8.73;4.25;;;17.30;72.00;;;;;;5097286;28;20052;-77
2021/07/30 00:43:18;;;;;;;13.63;4.20;;;17.30;72.00;;;;;;5062442;28;20035;-76
2021/07/30 00:45:45;;;;;;;8.88;3.53;;;17.20;72.10;;;;;;5096544;28;20143;-76
2021/07/30 00:48:12;;;;;;;13.20;4.43;;;17.10;72.20;;;;;;5079164;28;20024;-76
2021/07/30 00:50:38;;;;;;;9.15;4.03;;;17.00;72.60;;;;;;5096040;28;20021;-75
2021/07/30 00:53:04;;;;;;;9.05;3.90;;;17.00;72.90;;;;;;5097269;28;20129;-76
2021/07/30 00:55:30;;;;;;;10.02;4.47;;;17.00;73.00;;;;;;5097256;28;20055;-76
2021/07/30 00:57:57;;;;;;;9.75;5.05;;;17.00;73.00;;;;;;5079035;28;20024;-76
2021/07/30 01:00:23;;;;;;;11.63;5.15;;;17.10;73.20;;;;;;5095904;28;20024;-76
2021/07/30 01:02:49;;;;;;;9.70;4.20;;;17.10;73.10;;;;;;5097124;28;20364;-82
2021/07/30 01:05:16;;;;;;;11.38;4.68;;;17.10;73.00;;;;;;5096816;28;20020;-77
2021/07/30 01:07:42;;;;;;;10.48;4.43;;;17.10;73.00;;;;;;5095814;28;20357;-76
2021/07/30 01:10:08;;;;;;;10.98;3.80;;;17.00;73.00;;;;;;5096644;28;20023;-76
2021/07/30 01:12:34;;;;;;;9.57;3.97;;;17.00;73.20;;;;;;5097442;28;20035;-76
2021/07/30 01:14:59;;;;;;;7.93;3.28;;;17.00;73.40;;;;;;5095562;28;20024;-77
2021/07/30 01:17:25;;;;;;;9.73;4.00;;;16.80;73.80;;;;;;5096873;28;20036;-76
2021/07/30 01:19:54;;;;;;;8.48;4.60;;;16.80;74.30;;;;;;5095475;28;20086;-80
2021/07/30 01:22:23;;;;;;;10.10;4.30;;;16.70;74.80;;;;;;5096812;28;20032;-77
2021/07/30 01:24:53;;;;;;;9.20;4.78;;;16.70;75.10;;;;;;5097268;28;20032;-76
2021/07/30 01:27:22;;;;;;;10.30;5.00;;;16.60;75.40;;;;;;5096729;28;20024;-77
2021/07/30 01:29:48;;;;;;;9.60;5.15;;;16.50;76.10;;;;;;5096659;28;20028;-75
2021/07/30 01:32:19;;;;;;;7.43;4.40;;;16.50;76.60;;;;;;5096433;28;20024;-76
2021/07/30 01:34:45;;;;;;;10.38;4.40;;;16.40;77.30;;;;;;5074577;28;20032;-76
2021/07/30 01:37:11;;;;;;;11.68;4.82;;;16.20;77.90;;;;;;5040663;28;20565;-76
2021/07/30 01:39:37;;;;;;;9.05;5.05;;;16.10;78.50;;;;;;5057243;28;20072;-76
2021/07/30 01:42:04;;;;;;;8.93;4.40;;;16.00;79.00;;;;;;5057005;28;20096;-77
2021/07/30 01:44:30;;;;;;;11.32;5.00;;;16.00;79.40;;;;;;5057015;28;20179;-77
2021/07/30 01:46:56;;;;;;;13.07;5.25;;;15.90;79.90;;;;;;5057485;28;20516;-80
2021/07/30 01:49:21;;;;;;;8.63;5.05;;;15.80;80.10;;;;;;5040370;28;20390;-76
2021/07/30 01:51:47;;;;;;;10.82;6.45;;;15.80;80.30;;;;;;5057122;28;20033;-76
2021/07/30 01:54:16;;;;;;;11.02;5.28;;;15.70;80.60;;;;;;5056605;28;20490;-78
2021/07/30 01:56:42;;;;;;;11.73;5.88;;;15.80;80.70;;;;;;5056628;28;20038;-77
2021/07/30 01:59:11;;;;;;;10.75;6.68;;;15.70;80.90;;;;;;5040209;28;20425;-77
2021/07/30 02:01:37;;;;;;;9.18;5.68;;;15.70;81.10;;;;;;5056747;28;20040;-78
2021/07/30 02:04:03;;;;;;;9.80;6.07;;;15.70;81.30;;;;;;5056244;28;20024;-77
2021/07/30 02:06:29;;;;;;;11.15;5.60;;;15.60;81.50;;;;;;5091932;28;20066;-77
2021/07/30 02:08:54;;;;;;;11.00;5.70;;;15.60;81.90;;;;;;5094447;28;20028;-78
2021/07/30 02:11:20;;;;;;;11.90;6.13;;;15.60;82.10;;;;;;5095578;28;20111;-77
2021/07/30 02:16:29;;;;;;;11.48;6.78;;;15.50;82.30;;;;;;5081057;28;20364;-76
2021/07/30 02:18:56;;;;;;;11.20;6.57;;;15.50;82.30;;;;;;5095361;28;20123;-76
2021/07/30 02:21:22;;;;;;;13.98;6.65;;;15.50;82.40;;;;;;5094322;28;20069;-76
2021/07/30 02:23:48;;;;;;;11.70;6.82;;;15.40;82.40;;;;;;5093661;28;20077;-76
2021/07/30 02:26:14;;;;;;;11.43;6.95;;;15.50;82.50;;;;;;5077166;28;20032;-77
2021/07/30 02:28:39;;;;;;;11.50;5.93;;;15.60;82.50;;;;;;5077276;28;20058;-76
2021/07/30 02:31:05;;;;;;;10.38;6.35;;;15.60;82.50;;;;;;5095462;28;20032;-77
2021/07/30 02:33:31;;;;;;;7.55;6.18;;;15.60;82.50;;;;;;5094842;28;20032;-77
2021/07/30 02:35:56;;;;;;;11.02;6.30;;;15.50;82.50;;;;;;5077085;28;20028;-77
2021/07/30 02:38:22;;;;;;;11.25;6.40;;;15.50;82.70;;;;;;5094036;28;20024;-77
2021/07/30 02:40:48;;;;;;;12.85;6.82;;;15.50;82.70;;;;;;5093573;28;20424;-76
2021/07/30 02:43:13;;;;;;;11.50;6.63;;;15.50;82.80;;;;;;5093785;28;20035;-76
2021/07/30 02:45:39;;;;;;;10.77;6.10;;;15.50;82.90;;;;;;5079256;28;20503;-76
2021/07/30 02:48:05;;;;;;;11.48;6.57;;;15.50;82.80;;;;;;5093714;28;20053;-77
2021/07/30 02:50:31;;;;;;;9.27;5.88;;;15.40;82.90;;;;;;5095224;28;20133;-76
2021/07/30 02:52:56;;;;;;;9.27;6.25;;;15.40;83.00;;;;;;5093303;28;20055;-76
2021/07/30 02:55:22;;;;;;;9.73;6.30;;;15.30;83.10;;;;;;5094018;28;20035;-76
2021/07/30 02:57:48;;;;;;;11.10;6.40;;;15.30;83.30;;;;;;5077761;28;20370;-76
2021/07/30 03:00:14;;;;;;;11.48;6.80;;;15.30;83.40;;;;;;5077007;28;20463;-76
2021/07/30 03:02:39;;;;;;;11.65;6.75;;;15.30;83.40;;;;;;5095461;28;20107;-76
2021/07/30 03:05:05;;;;;;;10.77;6.65;;;15.20;83.50;;;;;;5093340;28;20371;-81
2021/07/30 03:07:31;;;;;;;10.65;6.95;;;15.20;83.60;;;;;;5076470;28;20260;-77
2021/07/30 03:09:57;;;;;;;11.70;6.93;;;15.20;83.70;;;;;;5059825;28;20141;-76
2021/07/30 03:12:22;;;;;;;11.02;6.57;;;15.20;83.70;;;;;;5059751;28;20032;-75
2021/07/30 03:14:48;;;;;;;12.43;6.75;;;15.20;83.70;;;;;;5077469;28;20128;-75
2021/07/30 03:17:14;;;;;;;13.68;7.05;;;15.20;83.80;;;;;;5093372;28;20456;-76
2021/07/30 03:19:39;;;;;;;13.93;6.65;;;15.20;83.90;;;;;;5076940;28;20024;-76
2021/07/30 03:22:05;;;;;;;10.07;6.90;;;15.10;84.00;;;;;;5093708;28;20035;-80
2021/07/30 03:24:31;;;;;;;10.80;6.75;;;15.10;84.10;;;;;;5094127;28;20120;-76
2021/07/30 03:26:56;;;;;;;12.02;6.97;;;15.10;84.10;;;;;;5094244;28;20040;-76
2021/07/30 03:29:22;;;;;;;12.93;6.97;;;15.10;84.20;;;;;;5075822;28;20115;-75
2021/07/30 03:31:48;;;;;;;10.38;6.80;;;15.00;84.30;;;;;;5093135;28;20471;-76
2021/07/30 03:34:15;;;;;;;13.07;6.65;;;15.00;84.40;;;;;;5076962;28;20063;-76
2021/07/30 03:36:41;;;;;;;11.18;6.85;;;14.90;84.50;;;;;;5092757;28;20073;-75
2021/07/30 03:39:08;;;;;;;10.95;6.97;;;14.80;84.80;;;;;;5094395;28;20028;-80
2021/07/30 03:41:34;;;;;;;14.45;7.10;;;14.80;85.00;;;;;;5092299;28;20044;-76
2021/07/30 03:43:59;;;;;;;13.05;7.00;;;14.70;85.30;;;;;;5092625;28;20165;-76
2021/07/30 03:46:25;;;;;;;10.23;7.07;;;14.70;85.60;;;;;;5076007;28;20069;-76
2021/07/30 03:48:51;;;;;;;12.13;6.90;;;14.70;85.60;;;;;;5092543;28;20029;-75
2021/07/30 03:51:16;;;;;;;12.52;7.13;;;14.70;85.70;;;;;;5092698;28;20024;-76
2021/07/30 03:53:42;;;;;;;12.75;6.78;;;14.70;85.60;;;;;;5075363;28;20036;-76
2021/07/30 03:56:15;;;;;;;13.00;6.45;;;14.70;85.60;;;;;;5059382;28;20517;-75
2021/07/30 03:58:41;;;;;;;;;;;14.70;85.80;;;;;;5093296;28;20028;-76
2021/07/30 04:01:11;;;;;;;13.68;6.82;;;14.70;85.80;;;;;;5092238;28;19908;-75
2021/07/30 04:03:37;;;;;;;12.45;6.78;;;14.70;85.80;;;;;;5092046;28;20058;-76
2021/07/30 04:06:04;;;;;;;13.05;6.90;;;14.60;85.90;;;;;;5092509;28;20036;-76
2021/07/30 04:08:32;;;;;;;16.90;6.85;;;14.60;86.20;;;;;;5092342;28;20030;-76
2021/07/30 04:10:58;;;;;;;10.50;6.53;;;14.50;86.30;;;;;;5092944;28;20028;-76
2021/07/30 04:13:24;;;;;;;13.45;6.90;;;14.50;86.40;;;;;;5092358;28;20028;-76
2021/07/30 04:15:49;;;;;;;11.73;6.93;;;14.60;86.50;;;;;;5075705;28;20032;-75
2021/07/30 04:18:15;;;;;;;15.75;6.80;;;14.60;86.40;;;;;;5058617;28;20077;-81
2021/07/30 04:20:41;;;;;;;9.68;6.18;;;14.70;86.50;;;;;;5075708;28;20341;-76
2021/07/30 04:23:07;;;;;;;11.25;6.53;;;14.70;86.30;;;;;;5076054;28;20403;-76
2021/07/30 04:25:33;;;;;;;12.77;7.00;;;14.80;86.40;;;;;;5092239;28;20040;-76
2021/07/30 04:27:58;;;;;;;8.43;5.40;;;14.80;86.10;;;;;;5092960;28;20028;-76
2021/07/30 04:30:24;;;;;;;10.00;5.82;;;14.90;85.90;;;;;;5091985;28;20394;-76
2021/07/30 04:32:50;;;;;;;12.45;5.82;;;14.90;85.80;;;;;;5092086;28;20031;-75
2021/07/30 04:35:16;;;;;;;9.30;6.03;;;15.00;85.80;;;;;;5075482;28;20033;-82
2021/07/30 04:37:42;;;;;;;8.02;5.82;;;15.10;85.60;;;;;;5092264;28;20035;-76
2021/07/30 04:40:08;;;;;;;7.90;5.65;;;15.20;85.50;;;;;;5058585;28;20027;-76
2021/07/30 04:42:34;;;;;;;12.02;6.00;;;15.20;85.10;;;;;;5091315;28;20040;-76
2021/07/30 04:44:59;;;;;;;8.60;5.95;;;15.30;85.10;;;;;;5092381;28;20349;-76
2021/07/30 04:47:25;;;;;;;13.98;6.10;;;15.30;85.00;;;;;;5074719;28;20039;-76
2021/07/30 04:49:50;;;;;;;8.90;5.63;;;15.50;84.50;;;;;;5058470;28;20031;-75
2021/07/30 04:52:16;;;;;;;10.35;5.50;;;15.50;84.00;;;;;;5075290;28;20032;-82
2021/07/30 04:54:42;;;;;;;10.30;5.78;;;15.80;83.60;;;;;;5075032;28;20053;-76
2021/07/30 04:57:10;;;;;;;13.45;5.80;;;16.50;82.30;;;;;;5092504;28;20028;-76
2021/07/30 04:59:36;;;;;;;13.30;5.53;;;17.30;80.00;;;;;;5075094;28;20035;-76
2021/07/30 05:02:03;;;;;;;9.38;4.93;;;17.70;77.50;;;;;;5093285;28;20361;-75
2021/07/30 05:04:29;;;;;;;7.82;4.13;;;18.00;76.80;;;;;;5091750;28;20023;-75
2021/07/30 05:06:56;;;;;;;8.95;4.85;;;18.50;75.10;;;;;;5093788;28;20028;-75
2021/07/30 05:09:22;;;;;;;7.40;4.47;;;18.50;74.20;;;;;;5093285;28;20028;-80
2021/07/30 05:11:48;;;;;;;8.70;4.25;;;18.60;74.20;;;;;;5075433;28;20127;-75
2021/07/30 05:14:13;;;;;;;9.68;4.78;;;18.60;74.10;;;;;;5075410;28;20028;-75
2021/07/30 05:16:39;;;;;;;8.50;4.65;;;18.50;74.00;;;;;;5099141;28;20077;-74
2021/07/30 05:19:04;;;;;;;6.80;4.65;;;18.60;73.70;;;;;;5081030;28;20048;-76
2021/07/30 05:21:30;;;;;;;9.13;4.05;;;18.70;73.70;;;;;;5098587;28;20056;-76
2021/07/30 05:23:58;;;;;;;7.70;4.07;;;19.30;72.70;;;;;;5097040;28;20111;-76
2021/07/30 05:26:23;;;;;;;8.95;4.40;;;19.70;70.80;;;;;;5104013;28;20464;-86
2021/07/30 05:28:49;;;;;;;8.15;4.20;;;19.60;70.20;;;;;;5116386;28;20069;-77
2021/07/30 05:31:16;;;;;;;7.72;4.03;;;19.50;70.50;;;;;;5118918;28;20024;-75
2021/07/30 05:33:42;;;;;;;11.75;4.97;;;19.70;70.20;;;;;;5118243;28;20095;-73
2021/07/30 05:36:08;;;;;;;7.75;4.60;;;20.10;69.20;;;;;;5116918;28;20028;-76
2021/07/30 05:38:33;;;;;;;9.25;4.55;;;20.60;67.60;;;;;;5099283;28;20025;-75
2021/07/30 05:40:59;;;;;;;9.93;4.40;;;21.60;66.40;;;;;;5116502;28;20108;-75
2021/07/30 05:43:24;;;;;;;9.43;4.95;;;22.60;63.30;;;;;;5117141;28;20020;-84
2021/07/30 05:45:52;;;;;;;8.02;4.30;;;23.30;61.60;;;;;;5116403;28;20035;-73
2021/07/30 05:48:17;;;;;;;9.00;4.63;;;23.20;60.50;;;;;;5110351;28;20055;-74
2021/07/30 05:50:47;;;;;;;6.10;3.97;;;22.60;61.30;;;;;;5078237;28;20087;-75
2021/07/30 05:53:13;;;;;;;5.97;3.33;;;22.70;61.80;;;;;;5094801;28;20131;-74
2021/07/30 05:55:38;;;;;;;5.53;2.67;;;23.30;60.70;;;;;;5078408;28;20527;-74
2021/07/30 05:58:04;;;;;;;6.93;3.25;;;23.80;58.80;;;;;;5078713;28;20031;-74
2021/07/30 06:00:30;;;;;;;6.65;2.70;;;24.30;57.10;;;;;;5094517;28;20024;-75
2021/07/30 06:02:55;;;;;;;5.20;2.63;;;24.70;56.00;;;;;;5095046;28;20032;-75
2021/07/30 06:05:21;;;;;;;5.07;2.10;;;25.00;55.00;;;;;;5094993;28;20441;-75
2021/07/30 06:07:47;;;;;;;5.15;2.20;;;25.40;54.50;;;;;;5077971;28;20078;-75
2021/07/30 06:10:13;;;;;;;6.07;2.13;;;25.50;52.70;;;;;;5078496;28;20361;-76
2021/07/30 06:12:38;;;;;;;6.28;2.17;;;25.80;52.50;;;;;;5094170;28;20077;-74
2021/07/30 06:15:04;;;;;;;5.28;1.85;;;26.20;50.70;;;;;;5094508;28;20042;-74
2021/07/30 06:17:30;;;;;;;5.80;2.67;;;26.40;50.80;;;;;;5098274;28;20028;-82
2021/07/30 06:19:56;;;;;;;5.85;2.20;;;26.50;49.10;;;;;;5078929;28;20020;-74
2021/07/30 06:22:22;;;;;;;5.97;2.08;;;26.60;49.20;;;;;;5094506;28;20036;-76
2021/07/30 06:24:47;;;;;;;3.15;1.38;;;26.40;50.10;;;;;;5077503;28;20028;-76
2021/07/30 06:27:15;;;;;;;4.05;1.52;;;25.90;50.70;;;;;;5093072;28;20534;-76
2021/07/30 06:29:41;;;;;;;6.30;1.70;;;25.00;51.00;;;;;;5077990;28;20383;-76
2021/07/30 06:32:07;;;;;;;7.63;2.00;;;24.10;53.30;;;;;;5094840;28;20038;-75
2021/07/30 06:34:33;;;;;;;4.60;1.48;;;23.60;55.50;;;;;;5077135;28;20031;-77
2021/07/30 06:36:59;;;;;;;7.57;2.08;;;23.40;56.10;;;;;;5093882;28;20024;-76
2021/07/30 06:39:25;;;;;;;4.32;1.80;;;23.70;55.40;;;;;;5094163;28;20028;-76
2021/07/30 06:41:51;;;;;;;8.85;4.40;;;24.10;54.80;;;;;;5077011;28;20056;-77
2021/07/30 06:44:17;;;;;;;5.88;2.45;;;24.50;54.90;;;;;;5093898;28;20058;-77
2021/07/30 06:46:43;;;;;;;4.93;1.98;;;25.50;52.50;;;;;;5093761;28;20111;-77
2021/07/30 06:49:08;;;;;;;3.78;1.67;;;25.50;50.60;;;;;;5094767;28;20506;-77
2021/07/30 06:51:34;;;;;;;4.03;2.15;;;25.10;51.80;;;;;;5093901;28;20047;-80
2021/07/30 06:54:01;;;;;;;6.65;1.48;;;25.40;52.30;;;;;;5093323;28;20443;-76
2021/07/30 06:56:28;;;;;;;5.97;1.83;;;25.20;51.20;;;;;;5076540;28;20043;-77
2021/07/30 06:58:54;;;;;;;4.68;1.80;;;25.00;51.80;;;;;;5093733;28;20050;-76
2021/07/30 07:01:20;;;;;;;5.05;2.00;;;24.70;52.00;;;;;;5093774;28;20353;-76
2021/07/30 07:03:46;;;;;;;5.50;1.90;;;24.50;52.40;;;;;;5095030;28;20046;-76
2021/07/30 07:06:16;;;;;;;5.63;2.00;;;24.20;53.40;;;;;;5093482;28;20058;-75
2021/07/30 07:08:43;;;;;;;4.15;1.70;;;23.90;54.00;;;;;;5093477;28;20074;-76
2021/07/30 07:11:09;;;;;;;6.03;1.88;;;23.50;55.10;;;;;;5094693;28;20031;-76
2021/07/30 07:13:35;;;;;;;3.33;1.77;;;23.20;56.20;;;;;;5093861;28;20028;-76
2021/07/30 07:16:01;;;;;;;3.55;1.52;;;23.20;56.90;;;;;;5076402;28;20097;-76
2021/07/30 07:18:26;;;;;;;6.28;1.65;;;23.00;57.10;;;;;;5076726;28;20040;-76
2021/07/30 07:20:57;;;;;;;3.60;1.50;;;22.80;57.50;;;;;;5093844;28;20456;-76
2021/07/30 07:23:22;;;;;;;3.78;2.03;;;22.80;58.70;;;;;;5059603;28;20434;-76
2021/07/30 07:25:48;;;;;;;5.68;1.52;;;23.40;56.90;;;;;;5094235;28;20020;-76
2021/07/30 07:28:13;;;;;;;6.60;1.60;;;24.10;56.20;;;;;;5093843;28;20503;-75
2021/07/30 07:30:39;;;;;;;5.13;1.55;;;24.80;54.10;;;;;;5082321;28;20448;-80
2021/07/30 07:33:05;;;;;;;9.77;1.73;;;25.40;52.50;;;;;;5112779;28;20024;-76
2021/07/30 07:35:30;;;;;;;4.15;1.40;;;25.20;51.60;;;;;;5112723;28;20043;-76
2021/07/30 07:38:04;;;;;;;4.82;1.40;;;25.00;52.60;;;;;;5114564;28;20043;-77
2021/07/30 07:40:30;;;;;;;3.85;1.15;;;25.00;52.50;;;;;;5116858;28;20020;-77
2021/07/30 07:42:57;;;;;;;7.07;1.05;;;25.30;50.50;;;;;;5115396;28;20030;-78
2021/07/30 07:45:23;;;;;;;4.97;1.20;;;25.60;51.40;;;;;;5111916;28;20078;-78
2021/07/30 07:47:48;;;;;;;3.00;0.80;;;26.50;49.80;;;;;;5110741;28;20024;-81
2021/07/30 07:50:14;;;;;;;2.72;0.80;;;26.90;48.80;;;;;;5109271;28;20026;-76
2021/07/30 07:52:40;;;;;;;3.85;1.17;;;27.00;48.60;;;;;;5103517;28;20036;-77
2021/07/30 07:55:08;;;;;;;2.25;1.02;;;26.90;48.90;;;;;;5094563;28;20047;-76
2021/07/30 07:57:33;;;;;;;3.13;1.00;;;26.50;49.00;;;;;;5094542;28;20467;-79
2021/07/30 07:59:59;;;;;;;3.70;1.10;;;26.00;50.30;;;;;;5094030;28;20039;-77
2021/07/30 08:02:25;;;;;;;4.05;1.13;;;25.80;50.90;;;;;;5094079;28;20051;-77
2021/07/30 08:04:51;;;;;;;6.00;0.98;;;25.60;51.30;;;;;;5093470;28;20052;-81
2021/07/30 08:07:17;;;;;;;4.03;0.98;;;25.50;52.10;;;;;;5076866;28;20083;-77
2021/07/30 08:09:44;;;;;;;3.42;0.95;;;25.70;51.00;;;;;;5094721;28;20058;-77
2021/07/30 08:12:10;;;;;;;3.15;0.75;;;25.80;50.30;;;;;;5059627;28;20041;-77
2021/07/30 08:14:38;;;;;;;3.35;0.90;;;25.80;50.30;;;;;;5076254;28;20032;-77
2021/07/30 08:17:03;;;;;;;3.53;0.70;;;26.20;49.40;;;;;;5093404;28;20418;-77
2021/07/30 08:19:33;;;;;;;1.95;0.68;;;26.40;49.60;;;;;;5093977;28;20103;-80
2021/07/30 08:21:59;;;;;;;3.38;0.80;;;26.60;49.20;;;;;;5093475;28;20020;-78
2021/07/30 08:24:25;;;;;;;2.60;0.70;;;26.50;49.10;;;;;;5091908;28;20421;-78
2021/07/30 08:26:50;;;;;;;1.90;0.60;;;26.10;49.20;;;;;;5076262;28;20031;-78
2021/07/30 08:29:16;;;;;;;3.60;0.70;;;26.10;49.80;;;;;;5092420;28;20032;-76
2021/07/30 08:31:42;;;;;;;4.15;0.93;;;26.60;49.70;;;;;;5075107;28;20493;-76
2021/07/30 08:34:07;;;;;;;4.30;0.70;;;27.30;49.10;;;;;;5092285;28;20028;-77
2021/07/30 08:36:33;;;;;;;3.92;0.60;;;27.70;47.30;;;;;;5074993;28;20035;-76
2021/07/30 08:39:00;;;;;;;6.45;0.88;;;28.30;46.00;;;;;;5093541;28;20032;-75
2021/07/30 08:41:25;;;;;;;3.63;0.65;;;28.90;44.50;;;;;;5091927;28;20048;-75
2021/07/30 08:43:52;;;;;;;2.50;0.60;;;29.30;44.10;;;;;;5075081;28;20521;-80
2021/07/30 08:46:21;;;;;;;3.58;0.60;;;29.50;42.80;;;;;;5093338;28;20028;-76
2021/07/30 08:48:47;;;;;;;2.95;0.80;;;29.70;43.20;;;;;;5093238;28;20027;-75
2021/07/30 08:51:16;;;;;;;1.80;0.70;;;29.90;43.10;;;;;;5062598;28;20077;-75
2021/07/30 08:53:43;;;;;;;2.22;0.50;;;30.10;43.50;;;;;;5095627;28;20039;-74
2021/07/30 08:56:08;;;;;;;2.83;0.60;;;30.50;42.40;;;;;;5096023;28;20024;-77
2021/07/30 08:58:35;;;;;;;2.63;0.60;;;30.30;42.40;;;;;;5078863;28;20035;-75
2021/07/30 09:01:01;;;;;;;1.70;0.52;;;30.50;41.60;;;;;;5095426;28;20385;-77
2021/07/30 09:03:36;;;;;;;3.88;0.70;;;30.40;42.50;;;;;;5096156;28;20028;-77
2021/07/30 09:06:28;;;;;;;2.08;0.60;;;30.50;42.10;;;;;;5095787;28;20032;-76
2021/07/30 09:08:54;;;;;;;1.73;0.60;;;30.30;42.30;;;;;;5093148;28;20044;-80
2021/07/30 09:11:31;;;;;;;2.03;0.60;;;30.20;40.20;;;;;;5096206;28;20376;-75
2021/07/30 09:13:58;;;;;;;3.15;0.65;;;30.30;41.60;;;;;;5095684;28;20035;-76
2021/07/30 09:16:23;;;;;;;7.65;1.02;;;30.40;42.00;;;;;;5078515;28;20032;-76
2021/07/30 09:18:51;;;;;;;3.65;0.60;;;30.70;42.10;;;;;;5095385;28;20601;-76
2021/07/30 09:21:32;;;;;;;1.88;0.68;;;31.40;41.10;;;;;;5096003;28;20123;-76
2021/07/30 09:24:09;;;;;;;2.60;0.80;;;31.90;40.60;;;;;;5095049;28;20032;-79
2021/07/30 09:26:53;;;;;;;2.90;0.60;;;32.20;38.00;;;;;;5078726;28;20029;-76
2021/07/30 09:29:25;;;;;;;3.30;0.60;;;31.40;40.00;;;;;;5096394;28;20032;-76
2021/07/30 09:32:04;;;;;;;3.28;0.73;;;30.80;40.30;;;;;;5096580;28;20020;-77
2021/07/30 09:34:39;;;;;;;1.67;0.70;;;30.70;41.10;;;;;;5096624;28;20085;-75
2021/07/30 09:37:14;;;;;;;2.42;0.70;;;30.80;41.00;;;;;;5095098;28;20020;-76
2021/07/30 09:39:43;;;;;;;2.42;0.75;;;30.90;40.80;;;;;;5097052;28;20017;-75
2021/07/30 09:42:16;;;;;;;5.35;0.90;;;31.10;40.80;;;;;;5097142;28;20461;-75
2021/07/30 09:44:46;;;;;;;2.65;0.70;;;31.70;39.80;;;;;;5096473;28;20023;-78
2021/07/30 09:47:16;;;;;;;3.28;0.60;;;31.90;39.60;;;;;;5095142;28;20460;-77
2021/07/30 09:50:03;;;;;;;1.98;0.60;;;31.90;40.10;;;;;;5096278;28;20020;-74
2021/07/30 09:52:34;;;;;;;2.83;0.50;;;32.00;40.10;;;;;;5096213;28;20115;-75
2021/07/30 09:55:02;;;;;;;3.40;0.70;;;31.60;39.90;;;;;;5096486;28;20059;-76
2021/07/30 09:57:29;;;;;;;1.60;0.60;;;31.40;40.20;;;;;;5095305;28;20118;-75
2021/07/30 10:00:09;;;;;;;2.85;0.60;;;31.30;40.20;;;;;;5095094;28;20024;-76
2021/07/30 10:02:37;;;;;;;1.95;0.63;;;31.90;40.50;;;;;;5095921;28;20081;-75
2021/07/30 10:05:05;;;;;;;1.80;0.60;;;32.50;39.20;;;;;;5095882;28;20488;-76
2021/07/30 10:07:32;;;;;;;3.95;0.70;;;32.70;39.20;;;;;;5095549;28;20093;-75
2021/07/30 10:12:47;;;;;;;1.98;0.80;;;32.90;38.70;;;;;;5096096;28;20066;-75
2021/07/30 10:15:13;;;;;;;2.25;0.70;;;33.10;38.40;;;;;;5094438;28;20130;-75
2021/07/30 10:17:44;;;;;;;1.63;1.00;;;33.30;38.30;;;;;;5095952;28;20039;-75
2021/07/30 10:20:12;;;;;;;3.22;0.68;;;33.30;38.00;;;;;;5093753;28;20027;-75
2021/07/30 10:22:40;;;;;;;2.47;0.70;;;32.70;38.90;;;;;;5095456;28;20499;-74
2021/07/30 10:25:09;;;;;;;2.38;0.60;;;32.80;39.00;;;;;;5095800;28;20165;-76
2021/07/30 10:27:41;;;;;;;1.90;0.70;;;32.90;38.90;;;;;;5095742;28;20024;-75
2021/07/30 10:30:15;;;;;;;2.65;0.88;;;32.90;38.00;;;;;;5094530;28;20471;-77
2021/07/30 10:33:01;;;;;;;2.33;0.70;;;32.30;38.40;;;;;;5095314;28;20031;-74
2021/07/30 10:35:27;;;;;;;3.60;1.08;;;32.10;38.40;;;;;;5095615;28;20101;-75
2021/07/30 10:38:14;;;;;;;1.85;0.80;;;31.40;38.80;;;;;;5095311;28;20020;-75
2021/07/30 10:40:41;;;;;;;3.65;1.15;;;31.20;41.10;;;;;;5095104;28;20024;-75
2021/07/30 10:43:08;;;;;;;1.77;1.02;;;31.60;39.70;;;;;;5095276;28;20020;-79
2021/07/30 10:45:38;;;;;;;2.58;0.98;;;31.40;40.80;;;;;;5095940;28;20032;-74
2021/07/30 10:48:22;;;;;;;2.25;1.20;;;30.80;39.80;;;;;;5095770;28;20093;-75
2021/07/30 10:50:56;;;;;;;2.53;0.90;;;30.00;41.60;;;;;;5093845;28;20024;-76
2021/07/30 10:55:58;;;;;;;1.17;0.70;;;30.10;42.00;;;;;;5094514;28;20479;-75
2021/07/30 10:58:53;;;;;;;3.78;0.90;;;30.20;42.30;;;;;;5093636;28;20097;-77
2021/07/30 11:01:21;;;;;;;2.17;1.10;;;30.40;41.80;;;;;;5062444;28;20114;-78
2021/07/30 11:03:53;;;;;;;3.50;0.90;;;30.60;41.70;;;;;;5094383;28;20032;-76
2021/07/30 11:06:25;;;;;;;1.83;0.73;;;31.30;41.10;;;;;;5093550;28;20032;-75
2021/07/30 11:09:04;;;;;;;2.50;0.90;;;31.70;40.90;;;;;;5093111;28;20169;-75
2021/07/30 11:11:36;;;;;;;2.95;0.93;;;32.20;39.60;;;;;;5092995;28;20016;-76
2021/07/30 11:14:17;;;;;;;;;;;32.20;40.20;;;;;;5093298;28;20062;-75
2021/07/30 11:16:57;;;;;;;3.03;0.82;;;32.30;39.30;;;;;;5093022;28;20200;-76
2021/07/30 11:19:31;;;;;;;2.70;0.90;;;32.30;40.00;;;;;;5076132;28;20119;-75
2021/07/30 11:21:58;;;;;;;3.10;0.98;;;32.50;39.70;;;;;;5093830;28;20422;-76
2021/07/30 11:24:24;;;;;;;2.60;0.90;;;32.60;38.90;;;;;;5092955;28;20364;-75
2021/07/30 11:26:50;;;;;;;2.72;0.70;;;32.80;39.20;;;;;;5093947;28;20039;-76
2021/07/30 11:29:17;;;;;;;5.03;1.10;;;32.80;39.00;;;;;;5094041;28;20449;-76
2021/07/30 11:31:55;;;;;;;3.60;1.20;;;32.80;38.50;;;;;;5094266;28;20028;-75
2021/07/30 11:34:29;;;;;;;6.45;1.00;;;32.80;37.30;;;;;;5094473;28;20059;-75
2021/07/30 11:37:06;;;;;;;1.95;0.90;;;32.30;38.80;;;;;;5093277;28;20028;-78
2021/07/30 11:39:43;;;;;;;3.75;1.00;;;32.20;39.80;;;;;;5093333;28;20043;-75
2021/07/30 11:42:28;;;;;;;1.80;0.75;;;32.00;39.20;;;;;;5092514;28;20055;-74
2021/07/30 11:45:00;;;;;;;2.05;0.80;;;32.00;39.00;;;;;;5093569;28;20483;-76
2021/07/30 11:47:28;;;;;;;4.88;1.05;;;32.00;39.10;;;;;;5093607;28;20103;-76
2021/07/30 11:50:17;;;;;;;3.53;1.00;;;32.20;38.50;;;;;;5093552;28;20028;-75
2021/07/30 11:52:43;;;;;;;1.60;0.90;;;32.20;38.50;;;;;;5092976;28;20059;-76
2021/07/30 11:55:19;;;;;;;1.35;0.70;;;32.30;38.00;;;;;;5092420;28;20035;-76
2021/07/30 11:57:47;;;;;;;5.25;1.15;;;32.40;38.10;;;;;;5093599;28;20028;-77
2021/07/30 12:00:29;;;;;;;1.88;0.80;;;32.30;38.50;;;;;;5092296;28;20473;-80
2021/07/30 12:02:55;;;;;;;2.05;0.90;;;32.20;38.30;;;;;;5092747;28;20020;-77
2021/07/30 12:05:41;;;;;;;2.25;1.10;;;31.60;39.00;;;;;;5093515;28;20059;-76
2021/07/30 12:08:08;;;;;;;3.00;1.30;;;31.30;39.00;;;;;;5093782;28;20109;-75
2021/07/30 12:10:35;;;;;;;1.45;0.82;;;31.10;39.30;;;;;;5092069;28;20024;-75
2021/07/30 12:13:02;;;;;;;2.13;0.80;;;30.80;40.00;;;;;;5093626;28;20019;-75
2021/07/30 12:15:28;;;;;;;1.80;1.17;;;30.80;40.00;;;;;;5092367;28;20487;-74
2021/07/30 12:18:02;;;;;;;1.50;0.90;;;30.80;40.50;;;;;;5092158;28;20028;-76
2021/07/30 12:20:36;;;;;;;2.50;1.00;;;30.70;40.80;;;;;;5093466;28;20032;-75
2021/07/30 12:23:05;;;;;;;2.65;1.10;;;30.60;40.90;;;;;;5092452;28;20119;-75
2021/07/30 12:25:49;;;;;;;1.60;0.88;;;30.60;40.10;;;;;;5090970;28;20032;-76
2021/07/30 12:28:17;;;;;;;2.30;1.30;;;30.50;40.10;;;;;;5092408;28;20547;-82
2021/07/30 12:30:46;;;;;;;2.70;0.90;;;30.30;41.00;;;;;;5075354;28;20384;-75
2021/07/30 12:33:25;;;;;;;3.53;1.17;;;30.20;41.00;;;;;;5092688;28;20055;-74
2021/07/30 12:36:01;;;;;;;3.20;1.20;;;30.00;40.80;;;;;;5093598;28;20024;-75
2021/07/30 12:38:27;;;;;;;2.85;0.93;;;29.60;41.40;;;;;;5093797;28;20057;-79
2021/07/30 12:41:11;;;;;;;1.83;1.20;;;29.40;41.90;;;;;;5091882;28;20048;-76
2021/07/30 12:43:37;;;;;;;4.13;1.20;;;29.40;42.40;;;;;;5092951;28;20036;-76
2021/07/30 12:46:03;;;;;;;2.25;1.30;;;29.40;42.30;;;;;;5058071;28;20367;-77
2021/07/30 12:48:29;;;;;;;4.30;1.33;;;29.20;43.00;;;;;;5074593;28;20031;-75
2021/07/30 12:50:55;;;;;;;3.70;1.08;;;29.00;43.20;;;;;;5092979;28;20074;-78
2021/07/30 12:53:24;;;;;;;2.67;1.20;;;28.80;43.40;;;;;;5091943;28;20032;-78
2021/07/30 12:56:09;;;;;;;3.30;1.10;;;28.60;44.10;;;;;;5093038;28;20043;-76
2021/07/30 12:58:40;;;;;;;2.13;1.05;;;28.50;44.60;;;;;;5091723;28;20074;-75